Sveva — IBEU — position and weather

sailwx.info

Track history (hours):
 
Tides and Currents Weather Stations Pressure Air Temp Water Temp Dewpoint Dewpoint Depression Visibility Wind Speed Wind Dir Waves Ship Positions

Sveva

Last reported at 2016-Sep-22 00:34 UTC. Time now 2016-Sep-27 17:17 UTC.
Position S 24°21' W 046°24'.

Length 136 m; draft 6.7 m.

Type: Ship (hazmat cat B). MMSI: 247359000.

Date/timePositionNaut miles runAvg speedWind from/ knotsBaromVisibWave heightAir tempDewpointWater temp
2016-Sep-22 00:34S 24°21' W 046°24'1110.9
2016-Sep-21 23:33S 24°11' W 046°23'1110.6
2016-Sep-21 22:34S 24°00' W 046°20'4 0.1
2016-Sep-20 07:12S 23°56' W 046°19'4 5.8
2016-Sep-20 06:33S 23°60' W 046°20'8 2.1
2016-Sep-20 02:31S 24°08' W 046°19'0 0.0
2016-Sep-19 23:31S 24°08' W 046°19'0 0.0
2016-Sep-19 19:28S 24°08' W 046°19'0 0.0
2016-Sep-19 18:31S 24°08' W 046°19'0 0.0
2016-Sep-19 16:25S 24°08' W 046°19'0 0.0
2016-Sep-19 14:31S 24°08' W 046°19'0 0.0
2016-Sep-19 13:31S 24°08' W 046°19'0 0.0
2016-Sep-19 12:31S 24°08' W 046°19'0 0.0
2016-Sep-19 11:31S 24°08' W 046°19'0 0.0
2016-Sep-19 09:31S 24°08' W 046°19'0 0.1
2016-Sep-19 07:31S 24°08' W 046°19'0 0.0
2016-Sep-19 06:31S 24°08' W 046°19'0 0.0
2016-Sep-19 03:25S 24°08' W 046°19'0 0.1
2016-Sep-19 02:31S 24°08' W 046°19'0 0.0
2016-Sep-19 00:31S 24°08' W 046°19'0 0.0
2016-Sep-18 19:22S 24°08' W 046°19'0 0.0
2016-Sep-18 15:28S 24°08' W 046°19'0 0.0
2016-Sep-18 14:25S 24°08' W 046°19'0 0.0
2016-Sep-18 10:28S 24°08' W 046°19'0 0.0
2016-Sep-18 09:31S 24°08' W 046°19'0 0.0
2016-Sep-18 02:31S 24°08' W 046°19'0 0.0
2016-Sep-18 01:31S 24°08' W 046°19'0 0.0
2016-Sep-18 00:31S 24°08' W 046°19'0 0.0
2016-Sep-17 22:31S 24°08' W 046°19'0 0.0
2016-Sep-17 21:31S 24°08' W 046°19'0 0.0
2016-Sep-17 20:31S 24°08' W 046°19'0 0.0
2016-Sep-17 19:13S 24°08' W 046°19'0 0.0
2016-Sep-17 13:30S 24°08' W 046°19'0 0.0
2016-Sep-17 12:31S 24°08' W 046°19'0 0.0
2016-Sep-17 10:31S 24°08' W 046°19'0 0.0
2016-Sep-17 09:33S 24°08' W 046°19'0 0.0
2016-Sep-17 08:31S 24°08' W 046°19'0 0.0
2016-Sep-17 07:34S 24°08' W 046°19'0 0.0
2016-Sep-17 05:34S 24°08' W 046°19'0 0.0
2016-Sep-17 04:28S 24°08' W 046°19'0 0.0
2016-Sep-17 00:33S 24°08' W 046°19'0 0.0
2016-Sep-16 17:33S 24°08' W 046°19'0 0.0
2016-Sep-16 15:30S 24°08' W 046°19'0 0.0
2016-Sep-16 12:30S 24°08' W 046°19'0 0.0
2016-Sep-16 09:33S 24°08' W 046°19'0 0.0
2016-Sep-16 07:33S 24°08' W 046°19'0 0.0
2016-Sep-16 03:33S 24°08' W 046°19'0 0.0
2016-Sep-16 02:27S 24°08' W 046°19'0 0.0
2016-Sep-16 00:30S 24°08' W 046°19'0 0.0
2016-Sep-15 22:33S 24°08' W 046°19'0 0.0
2016-Sep-15 21:30S 24°08' W 046°19'0 0.0
2016-Sep-15 20:30S 24°08' W 046°19'0 0.0
2016-Sep-15 18:33S 24°08' W 046°19'0 0.0
2016-Sep-15 12:24S 24°08' W 046°19'0 0.0
2016-Sep-15 11:24S 24°08' W 046°19'0 0.0
2016-Sep-15 04:33S 24°08' W 046°19'0 0.1
2016-Sep-15 03:33S 24°08' W 046°19'0 0.0
2016-Sep-15 01:24S 24°08' W 046°19'0 0.0
2016-Sep-14 22:27S 24°08' W 046°19'0 0.0
2016-Sep-14 21:33S 24°08' W 046°19'0 0.0
2016-Sep-14 17:33S 24°08' W 046°19'0 0.0
2016-Sep-14 16:30S 24°08' W 046°19'0 0.0
2016-Sep-14 13:33S 24°08' W 046°19'0 0.0
2016-Sep-14 12:33S 24°08' W 046°19'0 0.0
2016-Sep-14 10:33S 24°08' W 046°19'0 0.0
2016-Sep-14 09:30S 24°08' W 046°19'0 0.0
2016-Sep-14 08:30S 24°08' W 046°19'0 0.0
2016-Sep-14 07:30S 24°08' W 046°19'0 0.0
2016-Sep-14 06:33S 24°08' W 046°19'0 0.0
2016-Sep-14 03:33S 24°08' W 046°19'0 0.0
2016-Sep-13 22:33S 24°08' W 046°19'2 1.1
2016-Sep-13 20:33S 24°08' W 046°22'10 0.4
2016-Sep-12 17:27S 23°59' W 046°17'23 7.8
2016-Sep-12 14:28S 24°22' W 046°13'  
Track history (hours):
 
Tides and Currents Weather Stations Pressure Air Temp Water Temp Dewpoint Dewpoint Depression Visibility Wind Speed Wind Dir Waves Ship Positions

Sveva

Last reported at 2016-Sep-22 00:34 UTC. Time now 2016-Sep-27 17:17 UTC.
Position S 24°21' W 046°24'.

Length 136 m; draft 6.7 m.

Type: Ship (hazmat cat B). MMSI: 247359000.

Date/timePositionNaut miles runAvg speedWind from/ knotsBaromVisibWave heightAir tempDewpointWater temp
2016-Sep-22 00:34S 24°21' W 046°24'1110.9
2016-Sep-21 23:33S 24°11' W 046°23'1110.6
2016-Sep-21 22:34S 24°00' W 046°20'4 0.1
2016-Sep-20 07:12S 23°56' W 046°19'4 5.8
2016-Sep-20 06:33S 23°60' W 046°20'8 2.1
2016-Sep-20 02:31S 24°08' W 046°19'0 0.0
2016-Sep-19 23:31S 24°08' W 046°19'0 0.0
2016-Sep-19 19:28S 24°08' W 046°19'0 0.0
2016-Sep-19 18:31S 24°08' W 046°19'0 0.0
2016-Sep-19 16:25S 24°08' W 046°19'0 0.0
2016-Sep-19 14:31S 24°08' W 046°19'0 0.0
2016-Sep-19 13:31S 24°08' W 046°19'0 0.0
2016-Sep-19 12:31S 24°08' W 046°19'0 0.0
2016-Sep-19 11:31S 24°08' W 046°19'0 0.0
2016-Sep-19 09:31S 24°08' W 046°19'0 0.1
2016-Sep-19 07:31S 24°08' W 046°19'0 0.0
2016-Sep-19 06:31S 24°08' W 046°19'0 0.0
2016-Sep-19 03:25S 24°08' W 046°19'0 0.1
2016-Sep-19 02:31S 24°08' W 046°19'0 0.0
2016-Sep-19 00:31S 24°08' W 046°19'0 0.0
2016-Sep-18 19:22S 24°08' W 046°19'0 0.0
2016-Sep-18 15:28S 24°08' W 046°19'0 0.0
2016-Sep-18 14:25S 24°08' W 046°19'0 0.0
2016-Sep-18 10:28S 24°08' W 046°19'0 0.0
2016-Sep-18 09:31S 24°08' W 046°19'0 0.0
2016-Sep-18 02:31S 24°08' W 046°19'0 0.0
2016-Sep-18 01:31S 24°08' W 046°19'0 0.0
2016-Sep-18 00:31S 24°08' W 046°19'0 0.0
2016-Sep-17 22:31S 24°08' W 046°19'0 0.0
2016-Sep-17 21:31S 24°08' W 046°19'0 0.0
2016-Sep-17 20:31S 24°08' W 046°19'0 0.0
2016-Sep-17 19:13S 24°08' W 046°19'0 0.0
2016-Sep-17 13:30S 24°08' W 046°19'0 0.0
2016-Sep-17 12:31S 24°08' W 046°19'0 0.0
2016-Sep-17 10:31S 24°08' W 046°19'0 0.0
2016-Sep-17 09:33S 24°08' W 046°19'0 0.0
2016-Sep-17 08:31S 24°08' W 046°19'0 0.0
2016-Sep-17 07:34S 24°08' W 046°19'0 0.0
2016-Sep-17 05:34S 24°08' W 046°19'0 0.0
2016-Sep-17 04:28S 24°08' W 046°19'0 0.0
2016-Sep-17 00:33S 24°08' W 046°19'0 0.0
2016-Sep-16 17:33S 24°08' W 046°19'0 0.0
2016-Sep-16 15:30S 24°08' W 046°19'0 0.0
2016-Sep-16 12:30S 24°08' W 046°19'0 0.0
2016-Sep-16 09:33S 24°08' W 046°19'0 0.0
2016-Sep-16 07:33S 24°08' W 046°19'0 0.0
2016-Sep-16 03:33S 24°08' W 046°19'0 0.0
2016-Sep-16 02:27S 24°08' W 046°19'0 0.0
2016-Sep-16 00:30S 24°08' W 046°19'0 0.0
2016-Sep-15 22:33S 24°08' W 046°19'0 0.0
2016-Sep-15 21:30S 24°08' W 046°19'0 0.0
2016-Sep-15 20:30S 24°08' W 046°19'0 0.0
2016-Sep-15 18:33S 24°08' W 046°19'0 0.0
2016-Sep-15 12:24S 24°08' W 046°19'0 0.0
2016-Sep-15 11:24S 24°08' W 046°19'0 0.0
2016-Sep-15 04:33S 24°08' W 046°19'0 0.1
2016-Sep-15 03:33S 24°08' W 046°19'0 0.0
2016-Sep-15 01:24S 24°08' W 046°19'0 0.0
2016-Sep-14 22:27S 24°08' W 046°19'0 0.0
2016-Sep-14 21:33S 24°08' W 046°19'0 0.0
2016-Sep-14 17:33S 24°08' W 046°19'0 0.0
2016-Sep-14 16:30S 24°08' W 046°19'0 0.0
2016-Sep-14 13:33S 24°08' W 046°19'0 0.0
2016-Sep-14 12:33S 24°08' W 046°19'0 0.0
2016-Sep-14 10:33S 24°08' W 046°19'0 0.0
2016-Sep-14 09:30S 24°08' W 046°19'0 0.0
2016-Sep-14 08:30S 24°08' W 046°19'0 0.0
2016-Sep-14 07:30S 24°08' W 046°19'0 0.0
2016-Sep-14 06:33S 24°08' W 046°19'0 0.0
2016-Sep-14 03:33S 24°08' W 046°19'0 0.0
2016-Sep-13 22:33S 24°08' W 046°19'2 1.1
2016-Sep-13 20:33S 24°08' W 046°22'10 0.4
2016-Sep-12 17:27S 23°59' W 046°17'23 7.8
2016-Sep-12 14:28S 24°22' W 046°13'  

Dump ship's entire track history